sensor_id;sensor_type;location;lat;lon;timestamp;P1;durP1;ratioP1;P2;durP2;ratioP2
20711;SDS011;10517;50.742;4.224;2022-11-15T00:00:45;17.75;;;8.77;;
20711;SDS011;10517;50.742;4.224;2022-11-15T00:03:13;28.80;;;9.25;;
20711;SDS011;10517;50.742;4.224;2022-11-15T00:05:42;17.10;;;9.40;;
20711;SDS011;10517;50.742;4.224;2022-11-15T00:08:08;14.63;;;9.30;;
20711;SDS011;10517;50.742;4.224;2022-11-15T00:10:34;19.55;;;9.77;;
20711;SDS011;10517;50.742;4.224;2022-11-15T00:12:59;21.85;;;10.85;;
20711;SDS011;10517;50.742;4.224;2022-11-15T00:15:28;17.85;;;9.10;;
20711;SDS011;10517;50.742;4.224;2022-11-15T00:17:54;17.10;;;10.10;;
20711;SDS011;10517;50.742;4.224;2022-11-15T00:20:20;18.88;;;9.65;;
20711;SDS011;10517;50.742;4.224;2022-11-15T00:22:45;17.63;;;9.48;;
20711;SDS011;10517;50.742;4.224;2022-11-15T00:25:11;23.75;;;10.57;;
20711;SDS011;10517;50.742;4.224;2022-11-15T00:27:36;18.73;;;10.40;;
20711;SDS011;10517;50.742;4.224;2022-11-15T00:30:02;18.10;;;11.07;;
20711;SDS011;10517;50.742;4.224;2022-11-15T00:32:31;16.35;;;9.85;;
20711;SDS011;10517;50.742;4.224;2022-11-15T00:34:57;18.85;;;10.73;;
20711;SDS011;10517;50.742;4.224;2022-11-15T00:37:22;25.33;;;10.68;;
20711;SDS011;10517;50.742;4.224;2022-11-15T00:39:48;21.58;;;10.43;;
20711;SDS011;10517;50.742;4.224;2022-11-15T00:42:14;17.75;;;10.07;;
20711;SDS011;10517;50.742;4.224;2022-11-15T00:44:39;20.50;;;11.02;;
20711;SDS011;10517;50.742;4.224;2022-11-15T00:47:05;16.30;;;10.05;;
20711;SDS011;10517;50.742;4.224;2022-11-15T00:49:31;20.50;;;10.50;;
20711;SDS011;10517;50.742;4.224;2022-11-15T00:51:56;18.10;;;9.90;;
20711;SDS011;10517;50.742;4.224;2022-11-15T00:54:22;19.38;;;10.07;;
20711;SDS011;10517;50.742;4.224;2022-11-15T00:56:47;18.25;;;9.60;;
20711;SDS011;10517;50.742;4.224;2022-11-15T00:59:13;17.00;;;10.88;;
20711;SDS011;10517;50.742;4.224;2022-11-15T01:01:38;14.93;;;9.65;;
20711;SDS011;10517;50.742;4.224;2022-11-15T01:04:04;22.45;;;10.93;;
20711;SDS011;10517;50.742;4.224;2022-11-15T01:06:30;17.00;;;10.60;;
20711;SDS011;10517;50.742;4.224;2022-11-15T01:08:55;21.33;;;10.85;;
20711;SDS011;10517;50.742;4.224;2022-11-15T01:11:21;20.35;;;10.20;;
20711;SDS011;10517;50.742;4.224;2022-11-15T01:13:46;18.88;;;9.18;;
20711;SDS011;10517;50.742;4.224;2022-11-15T01:16:13;17.55;;;9.20;;
20711;SDS011;10517;50.742;4.224;2022-11-15T01:18:42;17.92;;;9.45;;
20711;SDS011;10517;50.742;4.224;2022-11-15T01:21:09;16.15;;;9.00;;
20711;SDS011;10517;50.742;4.224;2022-11-15T01:23:36;20.23;;;9.25;;
20711;SDS011;10517;50.742;4.224;2022-11-15T01:26:03;19.15;;;8.48;;
20711;SDS011;10517;50.742;4.224;2022-11-15T01:28:32;17.25;;;7.95;;
20711;SDS011;10517;50.742;4.224;2022-11-15T01:30:59;13.15;;;7.85;;
20711;SDS011;10517;50.742;4.224;2022-11-15T01:33:26;16.50;;;7.72;;
20711;SDS011;10517;50.742;4.224;2022-11-15T01:35:52;16.77;;;7.43;;
20711;SDS011;10517;50.742;4.224;2022-11-15T01:38:18;12.73;;;7.72;;
20711;SDS011;10517;50.742;4.224;2022-11-15T01:40:44;16.23;;;7.47;;
20711;SDS011;10517;50.742;4.224;2022-11-15T01:43:22;13.00;;;7.10;;
20711;SDS011;10517;50.742;4.224;2022-11-15T01:45:55;15.35;;;7.22;;
20711;SDS011;10517;50.742;4.224;2022-11-15T01:48:29;11.98;;;7.72;;
20711;SDS011;10517;50.742;4.224;2022-11-15T01:50:58;11.85;;;7.18;;
20711;SDS011;10517;50.742;4.224;2022-11-15T01:53:25;11.75;;;7.57;;
20711;SDS011;10517;50.742;4.224;2022-11-15T01:55:52;17.42;;;7.68;;
20711;SDS011;10517;50.742;4.224;2022-11-15T01:58:18;11.07;;;6.85;;
20711;SDS011;10517;50.742;4.224;2022-11-15T02:00:45;13.75;;;7.30;;
20711;SDS011;10517;50.742;4.224;2022-11-15T02:03:12;11.98;;;6.60;;
20711;SDS011;10517;50.742;4.224;2022-11-15T02:05:38;17.80;;;7.93;;
20711;SDS011;10517;50.742;4.224;2022-11-15T02:08:06;9.90;;;7.05;;
20711;SDS011;10517;50.742;4.224;2022-11-15T02:10:33;12.50;;;6.53;;
20711;SDS011;10517;50.742;4.224;2022-11-15T02:12:58;12.63;;;6.93;;
20711;SDS011;10517;50.742;4.224;2022-11-15T02:15:27;12.80;;;7.22;;
20711;SDS011;10517;50.742;4.224;2022-11-15T02:18:08;14.43;;;8.00;;
20711;SDS011;10517;50.742;4.224;2022-11-15T02:32:20;13.98;;;6.65;;
20711;SDS011;10517;50.742;4.224;2022-11-15T02:34:57;9.48;;;6.13;;
20711;SDS011;10517;50.742;4.224;2022-11-15T02:37:58;7.68;;;4.90;;
20711;SDS011;10517;50.742;4.224;2022-11-15T02:43:08;16.52;;;6.00;;
20711;SDS011;10517;50.742;4.224;2022-11-15T02:46:06;10.70;;;6.43;;
20711;SDS011;10517;50.742;4.224;2022-11-15T02:49:12;14.45;;;6.63;;
20711;SDS011;10517;50.742;4.224;2022-11-15T02:51:39;15.95;;;5.97;;
20711;SDS011;10517;50.742;4.224;2022-11-15T02:54:06;12.90;;;5.70;;
20711;SDS011;10517;50.742;4.224;2022-11-15T02:56:32;10.50;;;5.65;;
20711;SDS011;10517;50.742;4.224;2022-11-15T02:59:01;18.48;;;5.78;;
20711;SDS011;10517;50.742;4.224;2022-11-15T03:04:11;14.73;;;5.45;;
20711;SDS011;10517;50.742;4.224;2022-11-15T03:12:12;10.52;;;5.07;;
20711;SDS011;10517;50.742;4.224;2022-11-15T03:14:54;5.75;;;3.53;;
20711;SDS011;10517;50.742;4.224;2022-11-15T03:17:29;9.25;;;4.70;;
20711;SDS011;10517;50.742;4.224;2022-11-15T03:19:59;7.55;;;4.18;;
20711;SDS011;10517;50.742;4.224;2022-11-15T03:22:29;7.78;;;4.85;;
20711;SDS011;10517;50.742;4.224;2022-11-15T03:25:03;12.43;;;4.70;;
20711;SDS011;10517;50.742;4.224;2022-11-15T03:27:34;5.45;;;4.03;;
20711;SDS011;10517;50.742;4.224;2022-11-15T03:30:04;6.70;;;3.88;;
20711;SDS011;10517;50.742;4.224;2022-11-15T03:32:32;5.75;;;4.10;;
20711;SDS011;10517;50.742;4.224;2022-11-15T03:35:03;5.25;;;3.65;;
20711;SDS011;10517;50.742;4.224;2022-11-15T03:37:44;11.15;;;4.07;;
20711;SDS011;10517;50.742;4.224;2022-11-15T03:40:35;7.28;;;3.90;;
20711;SDS011;10517;50.742;4.224;2022-11-15T03:45:54;14.70;;;4.78;;
20711;SDS011;10517;50.742;4.224;2022-11-15T03:48:26;5.97;;;3.45;;
20711;SDS011;10517;50.742;4.224;2022-11-15T03:50:55;8.23;;;3.60;;
20711;SDS011;10517;50.742;4.224;2022-11-15T03:53:21;8.77;;;3.60;;
20711;SDS011;10517;50.742;4.224;2022-11-15T03:55:46;4.40;;;3.53;;
20711;SDS011;10517;50.742;4.224;2022-11-15T03:58:12;8.40;;;3.60;;
20711;SDS011;10517;50.742;4.224;2022-11-15T04:00:38;10.02;;;3.85;;
20711;SDS011;10517;50.742;4.224;2022-11-15T04:03:03;5.32;;;3.10;;
20711;SDS011;10517;50.742;4.224;2022-11-15T04:05:29;5.85;;;3.00;;
20711;SDS011;10517;50.742;4.224;2022-11-15T04:07:54;7.68;;;3.28;;
20711;SDS011;10517;50.742;4.224;2022-11-15T04:10:20;11.60;;;3.35;;
20711;SDS011;10517;50.742;4.224;2022-11-15T04:12:46;7.15;;;3.70;;
20711;SDS011;10517;50.742;4.224;2022-11-15T04:15:13;7.03;;;3.20;;
20711;SDS011;10517;50.742;4.224;2022-11-15T04:20:21;8.27;;;2.97;;
20711;SDS011;10517;50.742;4.224;2022-11-15T04:23:15;3.05;;;2.20;;
20711;SDS011;10517;50.742;4.224;2022-11-15T04:26:05;6.47;;;3.38;;
20711;SDS011;10517;50.742;4.224;2022-11-15T04:28:39;3.60;;;2.40;;
20711;SDS011;10517;50.742;4.224;2022-11-15T04:31:25;4.25;;;2.58;;
20711;SDS011;10517;50.742;4.224;2022-11-15T04:33:50;10.07;;;2.92;;
20711;SDS011;10517;50.742;4.224;2022-11-15T04:36:16;8.52;;;2.95;;
20711;SDS011;10517;50.742;4.224;2022-11-15T04:39:01;6.30;;;2.83;;
20711;SDS011;10517;50.742;4.224;2022-11-15T04:41:27;5.78;;;2.80;;
20711;SDS011;10517;50.742;4.224;2022-11-15T04:43:54;13.57;;;3.88;;
20711;SDS011;10517;50.742;4.224;2022-11-15T04:46:19;6.07;;;3.50;;
20711;SDS011;10517;50.742;4.224;2022-11-15T04:48:45;10.70;;;3.38;;
20711;SDS011;10517;50.742;4.224;2022-11-15T04:51:10;4.47;;;2.92;;
20711;SDS011;10517;50.742;4.224;2022-11-15T04:53:36;14.40;;;3.47;;
20711;SDS011;10517;50.742;4.224;2022-11-15T04:56:01;4.97;;;2.92;;
20711;SDS011;10517;50.742;4.224;2022-11-15T04:58:27;9.60;;;2.78;;
20711;SDS011;10517;50.742;4.224;2022-11-15T05:00:53;7.50;;;2.88;;
20711;SDS011;10517;50.742;4.224;2022-11-15T05:03:18;3.27;;;2.10;;
20711;SDS011;10517;50.742;4.224;2022-11-15T05:06:02;7.43;;;2.30;;
20711;SDS011;10517;50.742;4.224;2022-11-15T05:08:28;8.47;;;2.43;;
20711;SDS011;10517;50.742;4.224;2022-11-15T05:10:53;7.87;;;2.60;;
20711;SDS011;10517;50.742;4.224;2022-11-15T05:13:19;6.83;;;2.47;;
20711;SDS011;10517;50.742;4.224;2022-11-15T05:15:45;9.80;;;3.00;;
20711;SDS011;10517;50.742;4.224;2022-11-15T05:18:10;4.93;;;2.63;;
20711;SDS011;10517;50.742;4.224;2022-11-15T05:20:36;4.47;;;1.80;;
20711;SDS011;10517;50.742;4.224;2022-11-15T05:23:02;5.23;;;2.57;;
20711;SDS011;10517;50.742;4.224;2022-11-15T05:25:28;5.53;;;2.70;;
20711;SDS011;10517;50.742;4.224;2022-11-15T05:27:53;4.30;;;1.83;;
20711;SDS011;10517;50.742;4.224;2022-11-15T05:30:19;5.47;;;2.20;;
20711;SDS011;10517;50.742;4.224;2022-11-15T05:32:44;3.70;;;2.73;;
20711;SDS011;10517;50.742;4.224;2022-11-15T05:35:12;4.63;;;2.13;;
20711;SDS011;10517;50.742;4.224;2022-11-15T05:37:50;3.47;;;2.63;;
20711;SDS011;10517;50.742;4.224;2022-11-15T05:40:16;7.70;;;2.40;;
20711;SDS011;10517;50.742;4.224;2022-11-15T05:42:42;6.30;;;2.10;;
20711;SDS011;10517;50.742;4.224;2022-11-15T05:45:07;8.80;;;2.23;;
20711;SDS011;10517;50.742;4.224;2022-11-15T05:47:34;4.40;;;2.50;;
20711;SDS011;10517;50.742;4.224;2022-11-15T05:50:00;6.70;;;2.40;;
20711;SDS011;10517;50.742;4.224;2022-11-15T05:52:27;5.03;;;2.50;;
20711;SDS011;10517;50.742;4.224;2022-11-15T05:54:56;2.60;;;2.40;;
20711;SDS011;10517;50.742;4.224;2022-11-15T05:57:23;6.40;;;2.67;;
20711;SDS011;10517;50.742;4.224;2022-11-15T05:59:49;6.73;;;2.70;;
20711;SDS011;10517;50.742;4.224;2022-11-15T06:02:15;6.70;;;2.70;;
20711;SDS011;10517;50.742;4.224;2022-11-15T06:04:40;13.70;;;3.80;;
20711;SDS011;10517;50.742;4.224;2022-11-15T06:07:06;5.17;;;2.90;;
20711;SDS011;10517;50.742;4.224;2022-11-15T06:09:31;4.03;;;2.53;;
20711;SDS011;10517;50.742;4.224;2022-11-15T06:11:57;3.30;;;2.40;;
20711;SDS011;10517;50.742;4.224;2022-11-15T06:14:22;5.77;;;3.40;;
20711;SDS011;10517;50.742;4.224;2022-11-15T06:16:51;5.47;;;2.73;;
20711;SDS011;10517;50.742;4.224;2022-11-15T06:19:16;9.17;;;3.93;;
20711;SDS011;10517;50.742;4.224;2022-11-15T06:21:42;10.40;;;4.47;;
20711;SDS011;10517;50.742;4.224;2022-11-15T06:24:08;9.33;;;4.20;;
20711;SDS011;10517;50.742;4.224;2022-11-15T06:26:33;13.77;;;5.63;;
20711;SDS011;10517;50.742;4.224;2022-11-15T06:28:59;9.00;;;5.07;;
20711;SDS011;10517;50.742;4.224;2022-11-15T06:31:24;9.00;;;4.67;;
20711;SDS011;10517;50.742;4.224;2022-11-15T06:33:50;10.77;;;4.50;;
20711;SDS011;10517;50.742;4.224;2022-11-15T06:36:15;16.63;;;4.57;;
20711;SDS011;10517;50.742;4.224;2022-11-15T06:38:42;12.60;;;5.37;;
20711;SDS011;10517;50.742;4.224;2022-11-15T06:41:11;9.83;;;4.37;;
20711;SDS011;10517;50.742;4.224;2022-11-15T06:43:38;10.67;;;5.00;;
20711;SDS011;10517;50.742;4.224;2022-11-15T06:46:05;7.37;;;4.23;;
20711;SDS011;10517;50.742;4.224;2022-11-15T06:48:32;6.57;;;3.47;;
20711;SDS011;10517;50.742;4.224;2022-11-15T06:50:59;6.97;;;3.70;;
20711;SDS011;10517;50.742;4.224;2022-11-15T06:53:25;7.37;;;3.93;;
20711;SDS011;10517;50.742;4.224;2022-11-15T06:55:51;5.17;;;2.90;;
20711;SDS011;10517;50.742;4.224;2022-11-15T06:58:17;6.40;;;3.30;;
20711;SDS011;10517;50.742;4.224;2022-11-15T07:00:43;9.07;;;3.20;;
20711;SDS011;10517;50.742;4.224;2022-11-15T07:03:09;7.07;;;3.73;;
20711;SDS011;10517;50.742;4.224;2022-11-15T07:05:35;4.80;;;3.67;;
20711;SDS011;10517;50.742;4.224;2022-11-15T07:08:01;5.67;;;3.37;;
20711;SDS011;10517;50.742;4.224;2022-11-15T07:10:27;9.43;;;3.00;;
20711;SDS011;10517;50.742;4.224;2022-11-15T07:12:53;6.97;;;3.43;;
20711;SDS011;10517;50.742;4.224;2022-11-15T07:15:20;10.87;;;2.97;;
20711;SDS011;10517;50.742;4.224;2022-11-15T07:17:47;8.73;;;3.10;;
20711;SDS011;10517;50.742;4.224;2022-11-15T07:20:13;4.40;;;2.70;;
20711;SDS011;10517;50.742;4.224;2022-11-15T07:22:39;6.87;;;2.83;;
20711;SDS011;10517;50.742;4.224;2022-11-15T07:25:06;4.87;;;2.43;;
20711;SDS011;10517;50.742;4.224;2022-11-15T07:27:32;4.50;;;2.23;;
20711;SDS011;10517;50.742;4.224;2022-11-15T07:29:58;4.90;;;2.60;;
20711;SDS011;10517;50.742;4.224;2022-11-15T07:32:23;2.43;;;1.63;;
20711;SDS011;10517;50.742;4.224;2022-11-15T07:34:49;4.07;;;2.40;;
20711;SDS011;10517;50.742;4.224;2022-11-15T07:37:14;3.97;;;2.13;;
20711;SDS011;10517;50.742;4.224;2022-11-15T07:39:41;11.57;;;2.77;;
20711;SDS011;10517;50.742;4.224;2022-11-15T07:42:07;2.93;;;1.37;;
20711;SDS011;10517;50.742;4.224;2022-11-15T07:44:51;2.87;;;1.70;;
20711;SDS011;10517;50.742;4.224;2022-11-15T07:47:17;3.63;;;1.93;;
20711;SDS011;10517;50.742;4.224;2022-11-15T07:49:42;4.77;;;2.07;;
20711;SDS011;10517;50.742;4.224;2022-11-15T07:52:08;9.33;;;1.83;;
20711;SDS011;10517;50.742;4.224;2022-11-15T07:54:33;1.47;;;1.20;;
20711;SDS011;10517;50.742;4.224;2022-11-15T07:56:59;3.60;;;1.90;;
20711;SDS011;10517;50.742;4.224;2022-11-15T07:59:25;8.30;;;1.80;;
20711;SDS011;10517;50.742;4.224;2022-11-15T08:01:50;3.33;;;1.87;;
20711;SDS011;10517;50.742;4.224;2022-11-15T08:04:16;5.93;;;1.70;;
20711;SDS011;10517;50.742;4.224;2022-11-15T08:06:41;3.20;;;1.60;;
20711;SDS011;10517;50.742;4.224;2022-11-15T08:09:07;5.47;;;1.50;;
20711;SDS011;10517;50.742;4.224;2022-11-15T08:11:32;2.90;;;1.63;;
20711;SDS011;10517;50.742;4.224;2022-11-15T08:13:58;2.27;;;1.13;;
20711;SDS011;10517;50.742;4.224;2022-11-15T08:16:24;3.70;;;1.43;;
20711;SDS011;10517;50.742;4.224;2022-11-15T08:18:49;3.03;;;1.63;;
20711;SDS011;10517;50.742;4.224;2022-11-15T08:21:17;0.97;;;0.60;;
20711;SDS011;10517;50.742;4.224;2022-11-15T08:23:44;3.47;;;0.90;;
20711;SDS011;10517;50.742;4.224;2022-11-15T08:26:10;5.73;;;1.20;;
20711;SDS011;10517;50.742;4.224;2022-11-15T08:28:35;1.10;;;0.70;;
20711;SDS011;10517;50.742;4.224;2022-11-15T08:31:02;6.43;;;1.67;;
20711;SDS011;10517;50.742;4.224;2022-11-15T08:33:28;6.70;;;2.07;;
20711;SDS011;10517;50.742;4.224;2022-11-15T08:35:56;4.30;;;1.50;;
20711;SDS011;10517;50.742;4.224;2022-11-15T08:38:22;6.53;;;1.40;;
20711;SDS011;10517;50.742;4.224;2022-11-15T08:40:48;4.30;;;1.10;;
20711;SDS011;10517;50.742;4.224;2022-11-15T08:43:16;3.43;;;1.23;;
20711;SDS011;10517;50.742;4.224;2022-11-15T08:45:41;3.43;;;1.60;;
20711;SDS011;10517;50.742;4.224;2022-11-15T08:48:07;5.07;;;0.97;;
20711;SDS011;10517;50.742;4.224;2022-11-15T08:50:32;3.47;;;1.33;;
20711;SDS011;10517;50.742;4.224;2022-11-15T08:53:03;5.07;;;1.10;;
20711;SDS011;10517;50.742;4.224;2022-11-15T08:55:29;2.40;;;0.80;;
20711;SDS011;10517;50.742;4.224;2022-11-15T08:57:56;1.23;;;0.83;;
20711;SDS011;10517;50.742;4.224;2022-11-15T09:00:22;4.40;;;0.60;;
20711;SDS011;10517;50.742;4.224;2022-11-15T09:02:48;3.20;;;1.07;;
20711;SDS011;10517;50.742;4.224;2022-11-15T09:05:13;2.87;;;2.10;;
20711;SDS011;10517;50.742;4.224;2022-11-15T09:07:40;1.00;;;0.90;;
20711;SDS011;10517;50.742;4.224;2022-11-15T09:10:06;5.13;;;1.10;;
20711;SDS011;10517;50.742;4.224;2022-11-15T09:12:32;3.90;;;0.57;;
20711;SDS011;10517;50.742;4.224;2022-11-15T09:14:57;4.23;;;0.83;;
20711;SDS011;10517;50.742;4.224;2022-11-15T09:17:23;1.10;;;0.73;;
20711;SDS011;10517;50.742;4.224;2022-11-15T09:19:48;3.40;;;0.80;;
20711;SDS011;10517;50.742;4.224;2022-11-15T09:22:15;3.77;;;0.87;;
20711;SDS011;10517;50.742;4.224;2022-11-15T09:24:41;2.53;;;0.93;;
20711;SDS011;10517;50.742;4.224;2022-11-15T09:27:07;8.33;;;1.10;;
20711;SDS011;10517;50.742;4.224;2022-11-15T09:29:32;3.37;;;0.80;;
20711;SDS011;10517;50.742;4.224;2022-11-15T09:31:58;3.43;;;0.70;;
20711;SDS011;10517;50.742;4.224;2022-11-15T09:34:24;9.95;;;2.38;;
20711;SDS011;10517;50.742;4.224;2022-11-15T09:36:49;1.50;;;0.60;;
20711;SDS011;10517;50.742;4.224;2022-11-15T09:39:15;1.35;;;0.70;;
20711;SDS011;10517;50.742;4.224;2022-11-15T09:49:25;1.80;;;0.80;;
20711;SDS011;10517;50.742;4.224;2022-11-15T09:51:52;5.20;;;0.70;;
20711;SDS011;10517;50.742;4.224;2022-11-15T09:57:05;3.80;;;0.75;;
20711;SDS011;10517;50.742;4.224;2022-11-15T10:05:18;9.83;;;0.70;;
20711;SDS011;10517;50.742;4.224;2022-11-15T10:10:40;3.20;;;0.70;;
20711;SDS011;10517;50.742;4.224;2022-11-15T10:13:13;2.20;;;0.90;;
20711;SDS011;10517;50.742;4.224;2022-11-15T10:15:48;8.27;;;1.33;;
20711;SDS011;10517;50.742;4.224;2022-11-15T10:20:58;3.55;;;0.88;;
20711;SDS011;10517;50.742;4.224;2022-11-15T10:23:27;3.88;;;0.82;;
20711;SDS011;10517;50.742;4.224;2022-11-15T10:25:55;0.88;;;0.60;;
20711;SDS011;10517;50.742;4.224;2022-11-15T10:28:25;2.17;;;0.50;;
20711;SDS011;10517;50.742;4.224;2022-11-15T10:30:57;3.00;;;0.50;;
20711;SDS011;10517;50.742;4.224;2022-11-15T10:43:44;1.08;;;0.40;;
20711;SDS011;10517;50.742;4.224;2022-11-15T10:46:20;3.17;;;0.70;;
20711;SDS011;10517;50.742;4.224;2022-11-15T10:48:47;6.13;;;0.50;;
20711;SDS011;10517;50.742;4.224;2022-11-15T10:51:20;1.15;;;0.43;;
20711;SDS011;10517;50.742;4.224;2022-11-15T10:53:51;6.60;;;1.00;;
20711;SDS011;10517;50.742;4.224;2022-11-15T10:56:17;5.53;;;0.60;;
20711;SDS011;10517;50.742;4.224;2022-11-15T10:58:51;2.05;;;0.80;;
20711;SDS011;10517;50.742;4.224;2022-11-15T11:01:20;3.88;;;0.80;;
20711;SDS011;10517;50.742;4.224;2022-11-15T11:04:04;1.67;;;0.57;;
20711;SDS011;10517;50.742;4.224;2022-11-15T11:09:56;2.63;;;0.63;;
20711;SDS011;10517;50.742;4.224;2022-11-15T11:12:11;3.42;;;1.45;;
20711;SDS011;10517;50.742;4.224;2022-11-15T11:14:37;1.42;;;0.50;;
20711;SDS011;10517;50.742;4.224;2022-11-15T11:17:16;2.53;;;0.40;;
20711;SDS011;10517;50.742;4.224;2022-11-15T11:32:54;0.40;;;0.40;;
20711;SDS011;10517;50.742;4.224;2022-11-15T11:35:34;2.92;;;0.70;;
20711;SDS011;10517;50.742;4.224;2022-11-15T11:41:10;2.03;;;0.40;;
20711;SDS011;10517;50.742;4.224;2022-11-15T11:43:48;3.28;;;0.60;;
20711;SDS011;10517;50.742;4.224;2022-11-15T11:49:21;2.65;;;0.57;;
20711;SDS011;10517;50.742;4.224;2022-11-15T11:52:08;1.63;;;0.50;;
20711;SDS011;10517;50.742;4.224;2022-11-15T11:54:42;4.05;;;0.60;;
20711;SDS011;10517;50.742;4.224;2022-11-15T11:57:43;1.63;;;0.68;;
20711;SDS011;10517;50.742;4.224;2022-11-15T12:00:31;1.42;;;0.47;;
20711;SDS011;10517;50.742;4.224;2022-11-15T12:03:07;4.30;;;0.40;;
20711;SDS011;10517;50.742;4.224;2022-11-15T12:05:44;1.15;;;0.40;;
20711;SDS011;10517;50.742;4.224;2022-11-15T12:11:07;0.50;;;0.40;;
20711;SDS011;10517;50.742;4.224;2022-11-15T12:13:38;3.83;;;0.90;;
20711;SDS011;10517;50.742;4.224;2022-11-15T12:16:13;5.75;;;0.52;;
20711;SDS011;10517;50.742;4.224;2022-11-15T12:18:49;2.08;;;0.60;;
20711;SDS011;10517;50.742;4.224;2022-11-15T12:29:27;1.65;;;0.60;;
20711;SDS011;10517;50.742;4.224;2022-11-15T12:31:58;2.83;;;0.60;;
20711;SDS011;10517;50.742;4.224;2022-11-15T12:34:29;1.75;;;0.50;;
20711;SDS011;10517;50.742;4.224;2022-11-15T12:42:35;5.32;;;0.85;;
20711;SDS011;10517;50.742;4.224;2022-11-15T12:45:23;0.43;;;0.40;;
20711;SDS011;10517;50.742;4.224;2022-11-15T12:58:47;8.50;;;0.63;;
20711;SDS011;10517;50.742;4.224;2022-11-15T13:06:51;1.02;;;0.45;;
20711;SDS011;10517;50.742;4.224;2022-11-15T13:19:55;2.80;;;0.65;;
20711;SDS011;10517;50.742;4.224;2022-11-15T13:22:25;0.50;;;0.50;;
20711;SDS011;10517;50.742;4.224;2022-11-15T13:30:52;0.98;;;0.90;;
20711;SDS011;10517;50.742;4.224;2022-11-15T13:33:35;0.93;;;0.75;;
20711;SDS011;10517;50.742;4.224;2022-11-15T13:36:05;2.33;;;0.75;;
20711;SDS011;10517;50.742;4.224;2022-11-15T13:38:35;12.10;;;1.45;;
20711;SDS011;10517;50.742;4.224;2022-11-15T13:41:19;5.15;;;0.50;;
20711;SDS011;10517;50.742;4.224;2022-11-15T13:43:46;4.07;;;0.50;;
20711;SDS011;10517;50.742;4.224;2022-11-15T13:46:15;1.60;;;0.43;;
20711;SDS011;10517;50.742;4.224;2022-11-15T13:48:45;1.20;;;0.65;;
20711;SDS011;10517;50.742;4.224;2022-11-15T13:56:38;1.17;;;0.63;;
20711;SDS011;10517;50.742;4.224;2022-11-15T13:59:51;2.85;;;0.60;;
20711;SDS011;10517;50.742;4.224;2022-11-15T14:01:59;0.40;;;0.40;;
20711;SDS011;10517;50.742;4.224;2022-11-15T14:04:28;0.98;;;0.60;;
20711;SDS011;10517;50.742;4.224;2022-11-15T14:06:58;1.33;;;0.50;;
20711;SDS011;10517;50.742;4.224;2022-11-15T14:09:37;2.35;;;0.70;;
20711;SDS011;10517;50.742;4.224;2022-11-15T14:14:52;1.67;;;0.70;;
20711;SDS011;10517;50.742;4.224;2022-11-15T14:19:53;1.33;;;0.80;;
20711;SDS011;10517;50.742;4.224;2022-11-15T14:22:25;1.90;;;0.82;;
20711;SDS011;10517;50.742;4.224;2022-11-15T14:27:37;1.20;;;0.68;;
20711;SDS011;10517;50.742;4.224;2022-11-15T14:30:03;0.95;;;0.57;;
20711;SDS011;10517;50.742;4.224;2022-11-15T14:32:43;1.17;;;0.60;;
20711;SDS011;10517;50.742;4.224;2022-11-15T14:35:14;4.25;;;0.60;;
20711;SDS011;10517;50.742;4.224;2022-11-15T14:37:49;0.50;;;0.50;;
20711;SDS011;10517;50.742;4.224;2022-11-15T14:40:16;1.45;;;0.80;;
20711;SDS011;10517;50.742;4.224;2022-11-15T14:42:44;2.17;;;0.75;;
20711;SDS011;10517;50.742;4.224;2022-11-15T14:45:15;0.85;;;0.57;;
20711;SDS011;10517;50.742;4.224;2022-11-15T14:47:46;4.10;;;0.85;;
20711;SDS011;10517;50.742;4.224;2022-11-15T14:50:15;0.95;;;0.70;;
20711;SDS011;10517;50.742;4.224;2022-11-15T14:52:43;1.13;;;0.70;;
20711;SDS011;10517;50.742;4.224;2022-11-15T14:55:25;3.13;;;0.73;;
20711;SDS011;10517;50.742;4.224;2022-11-15T14:57:53;2.53;;;0.80;;
20711;SDS011;10517;50.742;4.224;2022-11-15T15:00:19;1.48;;;0.80;;
20711;SDS011;10517;50.742;4.224;2022-11-15T15:02:47;1.10;;;0.70;;
20711;SDS011;10517;50.742;4.224;2022-11-15T15:05:18;1.70;;;0.95;;
20711;SDS011;10517;50.742;4.224;2022-11-15T15:07:44;1.23;;;0.80;;
20711;SDS011;10517;50.742;4.224;2022-11-15T15:10:10;1.90;;;0.80;;
20711;SDS011;10517;50.742;4.224;2022-11-15T15:12:37;3.33;;;1.27;;
20711;SDS011;10517;50.742;4.224;2022-11-15T15:15:02;0.68;;;0.52;;
20711;SDS011;10517;50.742;4.224;2022-11-15T15:17:28;0.93;;;0.70;;
20711;SDS011;10517;50.742;4.224;2022-11-15T15:19:54;1.90;;;0.85;;
20711;SDS011;10517;50.742;4.224;2022-11-15T15:22:19;1.55;;;0.80;;
20711;SDS011;10517;50.742;4.224;2022-11-15T15:24:50;0.98;;;0.65;;
20711;SDS011;10517;50.742;4.224;2022-11-15T15:27:16;3.47;;;1.23;;
20711;SDS011;10517;50.742;4.224;2022-11-15T15:29:42;1.77;;;1.17;;
20711;SDS011;10517;50.742;4.224;2022-11-15T15:32:08;2.75;;;0.73;;
20711;SDS011;10517;50.742;4.224;2022-11-15T15:34:35;2.45;;;0.88;;
20711;SDS011;10517;50.742;4.224;2022-11-15T15:37:19;0.85;;;0.80;;
20711;SDS011;10517;50.742;4.224;2022-11-15T15:39:48;1.27;;;0.73;;
20711;SDS011;10517;50.742;4.224;2022-11-15T15:42:14;3.22;;;1.10;;
20711;SDS011;10517;50.742;4.224;2022-11-15T15:44:40;2.63;;;1.23;;
20711;SDS011;10517;50.742;4.224;2022-11-15T15:47:12;0.90;;;0.88;;
20711;SDS011;10517;50.742;4.224;2022-11-15T15:49:40;1.42;;;0.63;;
20711;SDS011;10517;50.742;4.224;2022-11-15T15:52:05;0.70;;;0.70;;
20711;SDS011;10517;50.742;4.224;2022-11-15T15:54:31;5.35;;;1.83;;
20711;SDS011;10517;50.742;4.224;2022-11-15T15:56:57;1.25;;;0.90;;
20711;SDS011;10517;50.742;4.224;2022-11-15T15:59:22;3.03;;;1.08;;
20711;SDS011;10517;50.742;4.224;2022-11-15T16:01:48;0.90;;;0.75;;
20711;SDS011;10517;50.742;4.224;2022-11-15T16:04:13;3.58;;;1.02;;
20711;SDS011;10517;50.742;4.224;2022-11-15T16:06:39;1.40;;;0.93;;
20711;SDS011;10517;50.742;4.224;2022-11-15T16:09:18;1.40;;;0.90;;
20711;SDS011;10517;50.742;4.224;2022-11-15T16:12:04;2.83;;;1.10;;
20711;SDS011;10517;50.742;4.224;2022-11-15T16:14:30;3.53;;;0.93;;
20711;SDS011;10517;50.742;4.224;2022-11-15T16:16:56;1.73;;;1.15;;
20711;SDS011;10517;50.742;4.224;2022-11-15T16:19:22;1.45;;;1.10;;
20711;SDS011;10517;50.742;4.224;2022-11-15T16:21:48;3.78;;;1.27;;
20711;SDS011;10517;50.742;4.224;2022-11-15T16:24:14;1.88;;;1.15;;
20711;SDS011;10517;50.742;4.224;2022-11-15T16:26:39;1.83;;;1.30;;
20711;SDS011;10517;50.742;4.224;2022-11-15T16:29:05;6.65;;;1.48;;
20711;SDS011;10517;50.742;4.224;2022-11-15T16:31:32;2.42;;;1.23;;
20711;SDS011;10517;50.742;4.224;2022-11-15T16:33:57;1.00;;;0.90;;
20711;SDS011;10517;50.742;4.224;2022-11-15T16:36:26;4.35;;;0.90;;
20711;SDS011;10517;50.742;4.224;2022-11-15T16:38:54;3.00;;;1.38;;
20711;SDS011;10517;50.742;4.224;2022-11-15T16:41:20;1.48;;;1.02;;
20711;SDS011;10517;50.742;4.224;2022-11-15T16:43:45;3.55;;;1.77;;
20711;SDS011;10517;50.742;4.224;2022-11-15T16:46:18;2.35;;;1.20;;
20711;SDS011;10517;50.742;4.224;2022-11-15T16:48:45;1.77;;;1.05;;
20711;SDS011;10517;50.742;4.224;2022-11-15T16:51:11;1.33;;;1.00;;
20711;SDS011;10517;50.742;4.224;2022-11-15T16:53:37;1.40;;;1.17;;
20711;SDS011;10517;50.742;4.224;2022-11-15T16:56:02;1.75;;;1.15;;
20711;SDS011;10517;50.742;4.224;2022-11-15T16:58:28;1.40;;;1.10;;
20711;SDS011;10517;50.742;4.224;2022-11-15T17:00:54;1.38;;;1.17;;
20711;SDS011;10517;50.742;4.224;2022-11-15T17:03:24;1.70;;;1.45;;
20711;SDS011;10517;50.742;4.224;2022-11-15T17:05:49;2.60;;;1.40;;
20711;SDS011;10517;50.742;4.224;2022-11-15T17:08:15;1.52;;;1.40;;
20711;SDS011;10517;50.742;4.224;2022-11-15T17:10:41;1.83;;;1.38;;
20711;SDS011;10517;50.742;4.224;2022-11-15T17:13:15;1.33;;;1.20;;
20711;SDS011;10517;50.742;4.224;2022-11-15T17:15:41;2.55;;;1.20;;
20711;SDS011;10517;50.742;4.224;2022-11-15T17:18:09;3.47;;;1.50;;